Abuna, Brazil
Current Conditions -  °F | °C
As of 12:00 PM on Thursday 23 Oct 2014 (Local Time) from SLRI Reporting Station
Broken Clouds Broken Clouds  
Wind Chill: 91°   Ceiling: 20000
Heat Index: 102°   Visibility: 4mi
Dew Point: 75°   Wind: 8mph
Humidity: 59%   Direction: 340°NNW
Pressure: 29.88"   Gusts: NA
Location:  9.7°S, 65.37°W
Report Text: SLRI 231600Z 34007KT 7000 SCT020 FEW020CB BKN200 33/24 Q1012
Loading
Personal Weather Stations






























Interactive Weather Map
Tropical Storm Tracking
New forecast layout! Learn more

10-Day Weather Forecast

Advertisements
Track Severe Weather on mobile